createdAt,value
2018-10-12T00:00:13.896Z,17.00
2018-10-12T00:02:54.895Z,17.00
2018-10-12T00:05:35.696Z,17.00
2018-10-12T00:08:16.578Z,17.00
2018-10-12T00:10:57.064Z,17.00
2018-10-12T00:13:37.892Z,17.00
2018-10-12T00:16:18.681Z,16.90
2018-10-12T00:18:59.527Z,16.80
2018-10-12T00:21:41.133Z,16.80
2018-10-12T00:24:21.982Z,16.70
2018-10-12T00:27:03.284Z,16.60
2018-10-12T00:29:44.611Z,16.60
2018-10-12T00:32:25.315Z,16.60
2018-10-12T00:35:06.308Z,16.50
2018-10-12T00:37:46.770Z,16.40
2018-10-12T00:40:27.664Z,16.30
2018-10-12T00:43:08.964Z,16.30
2018-10-12T00:45:50.021Z,16.20
2018-10-12T00:48:30.844Z,16.20
2018-10-12T00:51:11.301Z,16.20
2018-10-12T00:53:51.893Z,16.10
2018-10-12T00:56:33.171Z,16.10
2018-10-12T00:59:13.918Z,16.00
2018-10-12T01:01:55.097Z,16.80
2018-10-12T01:04:36.088Z,15.90
2018-10-12T01:07:17.124Z,15.80
2018-10-12T01:09:57.867Z,15.80
2018-10-12T01:12:38.846Z,15.70
2018-10-12T01:15:20.359Z,15.70
2018-10-12T01:18:00.930Z,15.70
2018-10-12T01:20:41.661Z,15.70
2018-10-12T01:23:23.166Z,15.60
2018-10-12T01:26:03.780Z,15.50
2018-10-12T01:28:48.711Z,15.40
2018-10-12T01:31:29.424Z,15.50
2018-10-12T01:34:10.525Z,15.40
2018-10-12T01:36:51.095Z,15.40
2018-10-12T01:39:31.750Z,15.30
2018-10-12T01:42:12.919Z,15.30
2018-10-12T01:44:54.136Z,15.20
2018-10-12T01:47:35.413Z,15.30
2018-10-12T01:50:16.236Z,15.20
2018-10-12T01:52:56.815Z,15.10
2018-10-12T01:55:37.928Z,15.20
2018-10-12T01:58:18.816Z,15.10
2018-10-12T02:01:00.109Z,15.10
2018-10-12T02:03:41.055Z,14.90
2018-10-12T02:06:21.779Z,14.90
2018-10-12T02:09:02.176Z,14.90
2018-10-12T02:11:44.044Z,14.90
2018-10-12T02:14:25.661Z,14.80
2018-10-12T02:17:06.727Z,14.70
2018-10-12T02:19:47.915Z,14.60
2018-10-12T02:22:29.001Z,14.50
2018-10-12T02:25:11.139Z,14.30
2018-10-12T02:27:52.376Z,14.20
2018-10-12T02:30:33.599Z,14.20
2018-10-12T02:33:14.666Z,14.30
2018-10-12T02:35:55.693Z,14.30
2018-10-12T02:38:36.700Z,14.30
2018-10-12T02:41:17.788Z,14.20
2018-10-12T02:43:58.616Z,14.20
2018-10-12T02:46:39.076Z,14.10
2018-10-12T02:49:20.057Z,14.00
2018-10-12T02:52:00.832Z,13.90
2018-10-12T02:54:43.138Z,13.80
2018-10-12T02:57:24.968Z,13.70
2018-10-12T03:00:05.629Z,13.90
2018-10-12T03:02:46.872Z,14.00
2018-10-12T03:05:27.638Z,14.10
2018-10-12T03:08:08.587Z,14.20
2018-10-12T03:10:50.103Z,14.20
2018-10-12T03:13:31.069Z,14.20
2018-10-12T03:16:13.004Z,14.10
2018-10-12T03:18:53.595Z,14.10
2018-10-12T03:21:34.324Z,14.10
2018-10-12T03:24:15.452Z,14.00
2018-10-12T03:26:56.884Z,14.00
2018-10-12T03:29:38.125Z,13.90
2018-10-12T03:32:19.408Z,13.90
2018-10-12T03:35:00.505Z,13.80
2018-10-12T03:37:41.640Z,13.90
2018-10-12T03:40:22.575Z,13.90
2018-10-12T03:43:03.356Z,13.80
2018-10-12T03:45:44.885Z,13.80
2018-10-12T03:48:25.845Z,13.80
2018-10-12T03:51:07.179Z,13.90
2018-10-12T03:53:48.243Z,13.90
2018-10-12T03:56:29.237Z,13.90
2018-10-12T03:59:10.368Z,13.90
2018-10-12T04:01:51.565Z,14.00
2018-10-12T04:04:33.371Z,14.00
2018-10-12T04:07:16.854Z,13.90
2018-10-12T04:09:57.854Z,13.80
2018-10-12T04:12:39.032Z,13.80
2018-10-12T04:15:20.930Z,13.70
2018-10-12T04:18:01.876Z,13.70
2018-10-12T04:20:42.872Z,13.70
2018-10-12T04:23:24.497Z,13.60
2018-10-12T04:26:06.018Z,13.40
2018-10-12T04:28:47.591Z,13.20
2018-10-12T04:31:29.359Z,13.10
2018-10-12T04:34:10.541Z,13.10
2018-10-12T04:36:51.868Z,13.10
2018-10-12T04:39:59.124Z,13.10
2018-10-12T04:42:41.113Z,13.00
2018-10-12T04:45:22.028Z,12.90
2018-10-12T04:48:03.541Z,12.80
2018-10-12T04:50:44.628Z,12.80
2018-10-12T04:53:25.677Z,12.90
2018-10-12T04:56:13.273Z,12.90
2018-10-12T04:58:54.532Z,12.80
2018-10-12T05:01:35.666Z,12.60
2018-10-12T05:04:16.961Z,12.50
2018-10-12T05:06:57.805Z,12.40
2018-10-12T05:09:38.832Z,12.30
2018-10-12T05:12:20.004Z,12.30
2018-10-12T05:15:00.856Z,12.20
2018-10-12T05:17:41.925Z,12.30
2018-10-12T05:20:23.202Z,12.30
2018-10-12T05:23:04.581Z,12.20
2018-10-12T05:25:46.123Z,12.10
2018-10-12T05:28:27.600Z,12.00
2018-10-12T05:31:09.182Z,12.00
2018-10-12T05:33:50.545Z,12.00
2018-10-12T05:36:31.456Z,12.00
2018-10-12T05:39:14.366Z,12.00
2018-10-12T05:41:55.470Z,12.00
2018-10-12T05:44:37.099Z,12.30
2018-10-12T05:47:18.548Z,12.40
2018-10-12T05:50:07.151Z,12.60
2018-10-12T05:52:47.987Z,12.60
2018-10-12T05:55:29.599Z,12.80
2018-10-12T05:58:10.552Z,13.00
2018-10-12T06:00:51.548Z,13.10
2018-10-12T06:03:32.743Z,13.30
2018-10-12T06:06:14.083Z,13.40
2018-10-12T06:08:55.402Z,13.40
2018-10-12T06:11:36.771Z,13.60
2018-10-12T06:14:17.757Z,13.60
2018-10-12T06:16:59.016Z,13.80
2018-10-12T06:19:40.870Z,13.80
2018-10-12T06:22:21.789Z,13.90
2018-10-12T06:25:02.765Z,14.00
2018-10-12T06:27:43.831Z,14.10
2018-10-12T06:30:26.403Z,14.20
2018-10-12T06:33:07.295Z,14.30
2018-10-12T06:35:49.755Z,14.40
2018-10-12T06:38:30.799Z,14.50
2018-10-12T06:41:12.003Z,14.60
2018-10-12T06:43:52.679Z,14.60
2018-10-12T06:46:33.939Z,14.70
2018-10-12T06:49:16.619Z,14.80
2018-10-12T06:51:57.555Z,14.90
2018-10-12T06:54:38.542Z,15.00
2018-10-12T06:57:19.135Z,15.10
2018-10-12T07:00:00.384Z,15.50
2018-10-12T07:02:41.541Z,16.60
2018-10-12T07:05:22.130Z,17.60
2018-10-12T07:08:03.100Z,18.90
2018-10-12T07:10:44.217Z,20.80
2018-10-12T07:13:25.520Z,22.50
2018-10-12T07:16:06.426Z,23.70
2018-10-12T07:18:48.026Z,24.00
2018-10-12T07:21:29.005Z,24.90
2018-10-12T07:24:09.807Z,25.00
2018-10-12T07:26:52.440Z,25.40
2018-10-12T07:29:32.913Z,25.90
2018-10-12T07:32:13.804Z,26.20
2018-10-12T07:34:54.695Z,26.50
2018-10-12T07:37:36.184Z,26.80
2018-10-12T07:40:17.739Z,27.40
2018-10-12T07:42:58.671Z,27.80
2018-10-12T07:45:40.169Z,27.30
2018-10-12T07:48:21.407Z,27.30
2018-10-12T07:51:01.964Z,27.70
2018-10-12T07:53:42.473Z,28.30
2018-10-12T07:56:22.973Z,28.90
2018-10-12T07:59:03.943Z,28.90
2018-10-12T08:01:44.459Z,29.40
2018-10-12T08:04:25.026Z,30.00
2018-10-12T08:07:06.844Z,30.40
2018-10-12T08:09:47.866Z,30.10
2018-10-12T08:12:28.854Z,29.80
2018-10-12T08:15:09.939Z,30.20
2018-10-12T08:17:50.602Z,31.00
2018-10-12T08:20:31.282Z,31.40
2018-10-12T08:23:12.364Z,30.70
2018-10-12T08:25:52.920Z,31.10
2018-10-12T08:28:34.057Z,30.80
2018-10-12T08:31:15.212Z,30.20
2018-10-12T08:33:55.730Z,29.90
2018-10-12T08:36:37.283Z,30.60
2018-10-12T08:39:18.467Z,31.70
2018-10-12T08:41:59.911Z,32.20
2018-10-12T08:44:41.257Z,32.60
2018-10-12T08:47:22.085Z,32.80
2018-10-12T08:50:03.568Z,32.90
2018-10-12T08:52:45.811Z,33.20
2018-10-12T08:55:26.948Z,33.20
2018-10-12T08:58:08.401Z,33.60
2018-10-12T09:00:49.066Z,33.00
2018-10-12T09:03:29.961Z,33.10
2018-10-12T09:06:10.612Z,33.20
2018-10-12T09:08:51.649Z,33.80
2018-10-12T09:11:32.681Z,34.30
2018-10-12T09:14:13.905Z,34.00
2018-10-12T09:16:54.393Z,34.20
2018-10-12T09:19:35.368Z,34.10
2018-10-12T09:22:15.841Z,33.90
2018-10-12T09:24:57.011Z,34.50
2018-10-12T09:27:37.801Z,34.80
2018-10-12T09:30:18.488Z,35.10
2018-10-12T09:32:59.507Z,35.00
2018-10-12T09:35:40.063Z,35.30
2018-10-12T09:38:20.943Z,35.00
2018-10-12T09:41:01.821Z,35.00
2018-10-12T09:43:42.789Z,35.20
2018-10-12T09:46:23.738Z,35.00
2018-10-12T09:49:04.613Z,34.90
2018-10-12T09:51:45.362Z,34.90
2018-10-12T09:54:25.835Z,35.20
2018-10-12T09:57:12.225Z,35.90
2018-10-12T09:59:53.093Z,35.90
2018-10-12T10:02:39.416Z,36.10
2018-10-12T10:05:20.301Z,35.90
2018-10-12T10:08:01.657Z,36.10
2018-10-12T10:10:42.450Z,35.30
2018-10-12T10:13:23.340Z,35.30
2018-10-12T10:16:04.211Z,35.80
2018-10-12T10:18:45.473Z,36.10
2018-10-12T10:21:26.413Z,35.50
2018-10-12T10:24:07.165Z,34.60
2018-10-12T10:26:48.949Z,34.30
2018-10-12T10:29:29.522Z,34.90
2018-10-12T10:32:10.180Z,35.90
2018-10-12T10:34:51.391Z,35.40
2018-10-12T10:37:31.813Z,35.80
2018-10-12T10:40:13.083Z,34.50
2018-10-12T10:42:53.702Z,34.50
2018-10-12T10:45:35.402Z,34.00
2018-10-12T10:48:16.326Z,34.50
2018-10-12T10:50:57.293Z,34.30
2018-10-12T10:53:38.223Z,33.60
2018-10-12T10:56:18.889Z,32.50
2018-10-12T10:59:00.154Z,31.50
2018-10-12T11:01:41.259Z,30.20
2018-10-12T11:04:21.899Z,29.40
2018-10-12T11:07:03.583Z,30.50
2018-10-12T11:09:44.358Z,32.20
2018-10-12T11:12:25.222Z,33.60
2018-10-12T11:15:06.773Z,34.30
2018-10-12T11:17:48.304Z,35.10
2018-10-12T11:20:28.901Z,36.00
2018-10-12T11:23:09.838Z,35.70
2018-10-12T11:25:50.612Z,35.10
2018-10-12T11:28:32.468Z,35.30
2018-10-12T11:31:13.332Z,35.40
2018-10-12T11:33:53.914Z,35.60
2018-10-12T11:36:34.484Z,35.60
2018-10-12T11:39:16.146Z,35.60
2018-10-12T11:41:57.496Z,35.40
2018-10-12T11:44:38.109Z,35.30
2018-10-12T11:47:19.605Z,36.00
2018-10-12T11:50:00.661Z,36.10
2018-10-12T11:52:41.588Z,36.00
2018-10-12T11:55:22.284Z,35.70
2018-10-12T11:58:03.609Z,35.70
2018-10-12T12:00:44.703Z,35.20
2018-10-12T12:03:25.391Z,35.40
2018-10-12T12:06:05.803Z,35.70
2018-10-12T12:08:46.226Z,35.50
2018-10-12T12:11:27.079Z,35.50
2018-10-12T12:14:08.372Z,35.70
2018-10-12T12:16:49.675Z,35.80
2018-10-12T12:19:30.663Z,35.40
2018-10-12T12:22:11.900Z,35.20
2018-10-12T12:24:52.343Z,35.40
2018-10-12T12:27:33.572Z,35.70
2018-10-12T12:30:14.456Z,35.30
2018-10-12T12:32:55.446Z,34.80
2018-10-12T12:35:36.566Z,33.80
2018-10-12T12:38:17.291Z,34.20
2018-10-12T12:40:58.222Z,34.50
2018-10-12T12:43:39.176Z,34.50
2018-10-12T12:46:20.080Z,34.40
2018-10-12T12:49:01.493Z,34.40
2018-10-12T12:51:42.569Z,34.30
2018-10-12T12:54:23.128Z,33.90
2018-10-12T12:57:03.607Z,34.50
2018-10-12T12:59:44.373Z,34.50
2018-10-12T13:02:25.407Z,34.50
2018-10-12T13:05:07.030Z,34.20
2018-10-12T13:07:47.912Z,34.10
2018-10-12T13:10:28.870Z,33.30
2018-10-12T13:13:10.291Z,32.70
2018-10-12T13:15:50.966Z,33.10
2018-10-12T13:18:31.932Z,33.20
2018-10-12T13:21:12.791Z,33.20
2018-10-12T13:23:53.503Z,33.50
2018-10-12T13:26:34.725Z,33.40
2018-10-12T13:29:15.327Z,33.40
2018-10-12T13:31:56.286Z,33.00
2018-10-12T13:34:38.042Z,33.00
2018-10-12T13:37:19.021Z,32.80
2018-10-12T13:40:00.159Z,33.00
2018-10-12T13:42:41.054Z,33.20
2018-10-12T13:45:22.355Z,33.30
2018-10-12T13:48:03.533Z,33.10
2018-10-12T13:50:44.288Z,32.80
2018-10-12T13:53:24.795Z,32.30
2018-10-12T13:56:05.796Z,31.80
2018-10-12T13:58:46.792Z,32.10
2018-10-12T14:01:27.915Z,32.20
2018-10-12T14:04:08.408Z,31.50
2018-10-12T14:06:49.720Z,31.00
2018-10-12T14:09:31.205Z,31.10
2018-10-12T14:12:12.225Z,31.40
2018-10-12T14:14:53.281Z,31.10
2018-10-12T14:17:34.279Z,30.90
2018-10-12T14:20:15.161Z,31.10
2018-10-12T14:22:55.987Z,31.20
2018-10-12T14:25:37.088Z,30.70
2018-10-12T14:28:18.106Z,29.90
2018-10-12T14:30:59.198Z,28.40
2018-10-12T14:33:41.401Z,27.60
2018-10-12T14:36:23.938Z,27.10
2018-10-12T14:39:08.414Z,26.70
2018-10-12T14:41:49.383Z,26.20
2018-10-12T14:44:30.647Z,26.20
2018-10-12T14:47:11.443Z,26.10
2018-10-12T14:49:52.798Z,26.10
2018-10-12T14:52:34.205Z,26.10
2018-10-12T14:55:15.609Z,26.30
2018-10-12T14:57:56.563Z,26.50
2018-10-12T15:00:37.327Z,26.70
2018-10-12T15:03:17.998Z,26.90
2018-10-12T15:05:58.853Z,26.40
2018-10-12T15:08:40.044Z,26.00
2018-10-12T15:11:20.667Z,25.50
2018-10-12T15:14:02.102Z,25.10
2018-10-12T15:16:42.661Z,24.80
2018-10-12T15:19:23.880Z,24.50
2018-10-12T15:22:04.347Z,24.30
2018-10-12T15:24:45.413Z,24.30
2018-10-12T15:27:26.084Z,24.10
2018-10-12T15:30:07.284Z,24.00
2018-10-12T15:32:48.210Z,23.90
2018-10-12T15:35:29.487Z,23.70
2018-10-12T15:38:10.563Z,23.60
2018-10-12T15:40:51.704Z,23.50
2018-10-12T15:43:32.208Z,23.40
2018-10-12T15:46:12.665Z,23.40
2018-10-12T15:48:53.250Z,23.30
2018-10-12T15:51:34.198Z,23.20
2018-10-12T15:54:15.560Z,23.10
2018-10-12T15:56:56.559Z,23.00
2018-10-12T15:59:38.110Z,22.90
2018-10-12T16:02:18.980Z,22.80
2018-10-12T16:04:59.703Z,22.70
2018-10-12T16:07:40.487Z,22.50
2018-10-12T16:10:20.966Z,22.50
2018-10-12T16:13:03.257Z,22.40
2018-10-12T16:15:44.273Z,22.30
2018-10-12T16:18:24.902Z,22.30
2018-10-12T16:21:07.811Z,22.20
2018-10-12T16:23:50.972Z,22.00
2018-10-12T16:26:31.540Z,21.90
2018-10-12T16:29:12.348Z,21.70
2018-10-12T16:31:53.441Z,21.60
2018-10-12T16:34:33.962Z,21.50
2018-10-12T16:37:14.407Z,21.50
2018-10-12T16:39:56.007Z,21.40
2018-10-12T16:42:36.929Z,21.40
2018-10-12T16:45:18.559Z,21.30
2018-10-12T16:47:59.240Z,21.20
2018-10-12T16:50:40.056Z,21.10
2018-10-12T16:53:20.625Z,21.00
2018-10-12T16:56:01.270Z,20.90
2018-10-12T16:58:42.139Z,20.80
2018-10-12T17:01:23.115Z,20.60
2018-10-12T17:04:05.657Z,20.50
2018-10-12T17:06:47.286Z,20.40
2018-10-12T17:09:28.980Z,20.30
2018-10-12T17:12:10.158Z,20.30
2018-10-12T17:14:51.157Z,20.30
2018-10-12T17:17:31.690Z,20.20
2018-10-12T17:20:12.799Z,20.10
2018-10-12T17:22:53.512Z,20.00
2018-10-12T17:25:34.608Z,20.10
2018-10-12T17:28:15.552Z,20.10
2018-10-12T17:30:56.047Z,19.90
2018-10-12T17:33:36.641Z,19.80
2018-10-12T17:36:17.505Z,19.90
2018-10-12T17:38:59.522Z,19.80
2018-10-12T17:41:40.415Z,19.80
2018-10-12T17:44:21.552Z,21.90
2018-10-12T17:47:02.926Z,19.70
2018-10-12T17:49:43.604Z,19.70
2018-10-12T17:52:24.270Z,19.60
2018-10-12T17:55:05.560Z,19.40
2018-10-12T17:57:46.526Z,19.30
2018-10-12T18:00:27.320Z,19.20
2018-10-12T18:03:08.747Z,19.20
2018-10-12T18:05:49.841Z,19.20
2018-10-12T18:08:31.560Z,19.10
2018-10-12T18:11:12.330Z,19.00
2018-10-12T18:13:53.232Z,18.90
2018-10-12T18:16:34.352Z,18.80
2018-10-12T18:19:14.916Z,18.80
2018-10-12T18:21:55.972Z,18.70
2018-10-12T18:24:37.309Z,18.60
2018-10-12T18:27:18.311Z,18.50
2018-10-12T18:30:05.939Z,18.50
2018-10-12T18:32:47.561Z,18.60
2018-10-12T18:35:28.597Z,18.60
2018-10-12T18:38:10.046Z,18.50
2018-10-12T18:40:51.190Z,18.50
2018-10-12T18:43:32.118Z,18.40
2018-10-12T18:46:13.319Z,18.30
2018-10-12T18:48:54.203Z,18.10
2018-10-12T18:51:34.719Z,17.90
2018-10-12T18:54:15.312Z,17.70
2018-10-12T18:56:56.849Z,17.60
2018-10-12T18:59:37.543Z,17.60
2018-10-12T19:02:18.603Z,17.60
2018-10-12T19:04:59.104Z,17.60
2018-10-12T19:07:40.252Z,17.70
2018-10-12T19:10:20.755Z,17.70
2018-10-12T19:13:01.322Z,17.60
2018-10-12T19:15:42.233Z,17.60
2018-10-12T19:18:23.797Z,17.50
2018-10-12T19:21:04.957Z,17.40
2018-10-12T19:23:45.519Z,17.40
2018-10-12T19:26:26.125Z,17.40
2018-10-12T19:29:07.473Z,17.40
2018-10-12T19:31:48.368Z,17.40
2018-10-12T19:34:29.284Z,17.50
2018-10-12T19:37:10.002Z,17.40
2018-10-12T19:39:50.874Z,17.40
2018-10-12T19:42:31.788Z,17.30
2018-10-12T19:45:12.782Z,17.10
2018-10-12T19:47:53.296Z,16.90
2018-10-12T19:50:34.017Z,16.70
2018-10-12T19:53:14.667Z,16.50
2018-10-12T19:55:55.759Z,16.40
2018-10-12T19:58:36.498Z,16.30
2018-10-12T20:01:17.124Z,16.10
2018-10-12T20:03:57.808Z,16.10
2018-10-12T20:06:38.335Z,16.00
2018-10-12T20:09:19.739Z,15.90
2018-10-12T20:12:01.243Z,15.80
2018-10-12T20:14:41.797Z,15.70
2018-10-12T20:17:22.443Z,15.70
2018-10-12T20:20:03.080Z,15.60
2018-10-12T20:22:43.743Z,15.50
2018-10-12T20:25:24.219Z,15.40
2018-10-12T20:28:05.255Z,15.40
2018-10-12T20:30:46.410Z,15.30
2018-10-12T20:33:27.039Z,15.30
2018-10-12T20:36:08.311Z,15.30
2018-10-12T20:38:49.323Z,15.20
2018-10-12T20:41:30.192Z,15.30
2018-10-12T20:44:11.913Z,15.30
2018-10-12T20:46:52.864Z,15.30
2018-10-12T20:49:34.146Z,15.30
2018-10-12T20:52:15.087Z,15.30
2018-10-12T20:54:56.342Z,15.30
2018-10-12T20:57:41.412Z,15.30
2018-10-12T21:00:22.280Z,15.20
2018-10-12T21:03:03.445Z,15.20
2018-10-12T21:05:43.926Z,15.20
2018-10-12T21:08:24.963Z,15.10
2018-10-12T21:11:06.247Z,15.10
2018-10-12T21:13:47.206Z,15.00
2018-10-12T21:16:27.821Z,14.90
2018-10-12T21:19:08.962Z,14.90
2018-10-12T21:21:49.796Z,14.90
2018-10-12T21:24:30.701Z,14.80
2018-10-12T21:27:11.204Z,14.70
2018-10-12T21:29:51.628Z,14.70
2018-10-12T21:32:32.206Z,14.70
2018-10-12T21:35:13.103Z,14.60
2018-10-12T21:37:53.807Z,14.60
2018-10-12T21:40:34.828Z,14.60
2018-10-12T21:43:15.925Z,14.50
2018-10-12T21:45:56.695Z,14.60
2018-10-12T21:48:37.852Z,14.80
2018-10-12T21:51:18.545Z,14.80
2018-10-12T21:53:59.082Z,14.90
2018-10-12T21:56:39.761Z,15.00
2018-10-12T21:59:21.064Z,14.90
2018-10-12T22:02:02.863Z,14.80
2018-10-12T22:04:43.522Z,14.80
2018-10-12T22:07:25.534Z,14.90
2018-10-12T22:10:06.193Z,14.90
2018-10-12T22:12:47.670Z,14.70
2018-10-12T22:15:28.545Z,14.60
2018-10-12T22:18:09.810Z,14.50
2018-10-12T22:20:50.825Z,14.50
2018-10-12T22:23:32.266Z,14.60
2018-10-12T22:26:13.194Z,14.70
2018-10-12T22:28:54.317Z,15.00
2018-10-12T22:31:35.064Z,15.00
2018-10-12T22:34:15.661Z,14.90
2018-10-12T22:36:56.675Z,15.10
2018-10-12T22:39:37.126Z,15.10
2018-10-12T22:42:18.752Z,15.10
2018-10-12T22:44:59.520Z,15.20
2018-10-12T22:47:40.441Z,15.30
2018-10-12T22:50:21.206Z,15.30
2018-10-12T22:53:02.347Z,15.30
2018-10-12T22:55:43.210Z,15.30
2018-10-12T22:58:24.837Z,15.40
2018-10-12T23:01:05.783Z,15.40
2018-10-12T23:03:46.514Z,15.30
2018-10-12T23:06:27.620Z,15.20
2018-10-12T23:09:10.691Z,15.10
2018-10-12T23:11:51.896Z,15.00
2018-10-12T23:14:32.688Z,15.10
2018-10-12T23:17:13.574Z,15.00
2018-10-12T23:19:54.477Z,14.90
2018-10-12T23:22:35.412Z,15.00
2018-10-12T23:25:17.751Z,15.10
2018-10-12T23:27:58.494Z,15.10
2018-10-12T23:30:39.806Z,15.10
2018-10-12T23:33:37.394Z,15.10
2018-10-12T23:36:18.744Z,15.10
2018-10-12T23:39:00.724Z,15.00
2018-10-12T23:41:42.146Z,15.00
2018-10-12T23:44:23.391Z,14.90
2018-10-12T23:47:04.117Z,14.90
2018-10-12T23:49:44.907Z,14.90
2018-10-12T23:52:25.468Z,14.90
2018-10-12T23:55:06.565Z,14.90
2018-10-12T23:57:48.018Z,14.90
